sensor_id;sensor_type;location;lat;lon;timestamp;temperature;humidity
31038;DHT22;17702;47.590;7.666;2023-01-13T00:01:53;11.40;91.80
31038;DHT22;17702;47.590;7.666;2023-01-13T00:04:19;11.40;92.20
31038;DHT22;17702;47.590;7.666;2023-01-13T00:06:44;11.30;92.80
31038;DHT22;17702;47.590;7.666;2023-01-13T00:09:10;11.30;93.30
31038;DHT22;17702;47.590;7.666;2023-01-13T00:11:35;11.20;94.00
31038;DHT22;17702;47.590;7.666;2023-01-13T00:14:01;11.30;94.20
31038;DHT22;17702;47.590;7.666;2023-01-13T00:16:26;11.20;94.20
31038;DHT22;17702;47.590;7.666;2023-01-13T00:18:52;11.20;94.20
31038;DHT22;17702;47.590;7.666;2023-01-13T00:21:18;11.10;94.00
31038;DHT22;17702;47.590;7.666;2023-01-13T00:23:44;11.10;94.00
31038;DHT22;17702;47.590;7.666;2023-01-13T00:26:11;11.20;94.00
31038;DHT22;17702;47.590;7.666;2023-01-13T00:28:37;11.20;92.80
31038;DHT22;17702;47.590;7.666;2023-01-13T00:31:03;11.20;92.60
31038;DHT22;17702;47.590;7.666;2023-01-13T00:33:29;11.30;91.10
31038;DHT22;17702;47.590;7.666;2023-01-13T00:35:57;11.50;88.50
31038;DHT22;17702;47.590;7.666;2023-01-13T00:38:23;11.60;88.40
31038;DHT22;17702;47.590;7.666;2023-01-13T00:40:58;11.60;88.70
31038;DHT22;17702;47.590;7.666;2023-01-13T00:43:24;11.60;87.60
31038;DHT22;17702;47.590;7.666;2023-01-13T00:45:51;11.60;87.20
31038;DHT22;17702;47.590;7.666;2023-01-13T00:48:20;11.70;85.90
31038;DHT22;17702;47.590;7.666;2023-01-13T00:50:53;11.70;86.90
31038;DHT22;17702;47.590;7.666;2023-01-13T00:53:18;11.80;86.30
31038;DHT22;17702;47.590;7.666;2023-01-13T00:55:44;11.80;85.20
31038;DHT22;17702;47.590;7.666;2023-01-13T00:58:09;11.90;85.10
31038;DHT22;17702;47.590;7.666;2023-01-13T01:00:35;11.90;85.20
31038;DHT22;17702;47.590;7.666;2023-01-13T01:03:00;11.90;85.40
31038;DHT22;17702;47.590;7.666;2023-01-13T01:05:26;11.90;83.70
31038;DHT22;17702;47.590;7.666;2023-01-13T01:07:51;11.90;83.80
31038;DHT22;17702;47.590;7.666;2023-01-13T01:10:17;11.90;85.60
31038;DHT22;17702;47.590;7.666;2023-01-13T01:12:42;11.90;85.30
31038;DHT22;17702;47.590;7.666;2023-01-13T01:15:08;11.90;85.70
31038;DHT22;17702;47.590;7.666;2023-01-13T01:17:37;11.90;86.50
31038;DHT22;17702;47.590;7.666;2023-01-13T01:20:03;11.90;84.90
31038;DHT22;17702;47.590;7.666;2023-01-13T01:22:29;11.90;85.70
31038;DHT22;17702;47.590;7.666;2023-01-13T01:24:54;11.80;86.50
31038;DHT22;17702;47.590;7.666;2023-01-13T01:27:20;11.70;86.90
31038;DHT22;17702;47.590;7.666;2023-01-13T01:29:45;11.70;87.60
31038;DHT22;17702;47.590;7.666;2023-01-13T01:32:11;11.70;87.60
31038;DHT22;17702;47.590;7.666;2023-01-13T01:34:36;11.70;88.20
31038;DHT22;17702;47.590;7.666;2023-01-13T01:37:03;11.70;88.70
31038;DHT22;17702;47.590;7.666;2023-01-13T01:39:29;11.70;88.60
31038;DHT22;17702;47.590;7.666;2023-01-13T01:41:55;11.70;89.20
31038;DHT22;17702;47.590;7.666;2023-01-13T01:47:11;11.60;90.30
31038;DHT22;17702;47.590;7.666;2023-01-13T01:49:38;11.60;88.80
31038;DHT22;17702;47.590;7.666;2023-01-13T01:52:11;11.60;91.30
31038;DHT22;17702;47.590;7.666;2023-01-13T01:54:43;11.60;92.20
31038;DHT22;17702;47.590;7.666;2023-01-13T01:57:10;11.60;94.10
31038;DHT22;17702;47.590;7.666;2023-01-13T01:59:37;11.60;94.50
31038;DHT22;17702;47.590;7.666;2023-01-13T02:02:03;11.60;95.40
31038;DHT22;17702;47.590;7.666;2023-01-13T02:04:29;11.50;95.10
31038;DHT22;17702;47.590;7.666;2023-01-13T02:06:56;11.50;96.20
31038;DHT22;17702;47.590;7.666;2023-01-13T02:09:23;11.50;96.20
31038;DHT22;17702;47.590;7.666;2023-01-13T02:11:49;11.40;96.90
31038;DHT22;17702;47.590;7.666;2023-01-13T02:14:33;11.40;97.10
31038;DHT22;17702;47.590;7.666;2023-01-13T02:24:39;11.30;97.20
31038;DHT22;17702;47.590;7.666;2023-01-13T02:32:53;11.20;99.90
31038;DHT22;17702;47.590;7.666;2023-01-13T02:37:48;11.20;99.60
31038;DHT22;17702;47.590;7.666;2023-01-13T02:40:17;11.20;99.90
31038;DHT22;17702;47.590;7.666;2023-01-13T02:42:48;11.10;99.90
31038;DHT22;17702;47.590;7.666;2023-01-13T02:45:38;11.10;99.90
31038;DHT22;17702;47.590;7.666;2023-01-13T02:48:06;11.00;99.90
31038;DHT22;17702;47.590;7.666;2023-01-13T02:50:36;11.00;99.90
31038;DHT22;17702;47.590;7.666;2023-01-13T02:56:07;11.00;99.90
31038;DHT22;17702;47.590;7.666;2023-01-13T02:58:34;10.90;99.90
31038;DHT22;17702;47.590;7.666;2023-01-13T03:01:00;11.00;99.90
31038;DHT22;17702;47.590;7.666;2023-01-13T03:03:26;10.90;99.90
31038;DHT22;17702;47.590;7.666;2023-01-13T03:05:56;10.90;99.90
31038;DHT22;17702;47.590;7.666;2023-01-13T03:10:58;10.80;99.90
31038;DHT22;17702;47.590;7.666;2023-01-13T03:16:39;10.80;99.90
31038;DHT22;17702;47.590;7.666;2023-01-13T03:19:13;10.80;99.90
31038;DHT22;17702;47.590;7.666;2023-01-13T03:24:16;10.90;99.90
31038;DHT22;17702;47.590;7.666;2023-01-13T03:26:46;11.00;99.90
31038;DHT22;17702;47.590;7.666;2023-01-13T03:29:16;11.10;99.90
31038;DHT22;17702;47.590;7.666;2023-01-13T03:31:45;11.20;99.30
31038;DHT22;17702;47.590;7.666;2023-01-13T03:34:13;11.10;99.30
31038;DHT22;17702;47.590;7.666;2023-01-13T03:36:40;11.20;98.60
31038;DHT22;17702;47.590;7.666;2023-01-13T03:39:07;11.20;98.70
31038;DHT22;17702;47.590;7.666;2023-01-13T03:44:43;11.20;98.30
31038;DHT22;17702;47.590;7.666;2023-01-13T03:49:25;11.30;97.90
31038;DHT22;17702;47.590;7.666;2023-01-13T03:51:54;11.20;98.70
31038;DHT22;17702;47.590;7.666;2023-01-13T03:54:21;11.20;98.00
31038;DHT22;17702;47.590;7.666;2023-01-13T03:56:50;11.20;98.30
31038;DHT22;17702;47.590;7.666;2023-01-13T03:59:19;11.20;98.30
31038;DHT22;17702;47.590;7.666;2023-01-13T04:04:51;11.20;98.10
31038;DHT22;17702;47.590;7.666;2023-01-13T04:13:00;11.30;97.70
31038;DHT22;17702;47.590;7.666;2023-01-13T04:15:23;11.30;97.90
31038;DHT22;17702;47.590;7.666;2023-01-13T04:17:50;11.30;97.60
31038;DHT22;17702;47.590;7.666;2023-01-13T04:20:15;11.30;97.40
31038;DHT22;17702;47.590;7.666;2023-01-13T04:22:41;11.30;98.00
31038;DHT22;17702;47.590;7.666;2023-01-13T04:25:06;11.30;97.70
31038;DHT22;17702;47.590;7.666;2023-01-13T04:27:32;11.30;97.20
31038;DHT22;17702;47.590;7.666;2023-01-13T04:29:57;11.30;97.30
31038;DHT22;17702;47.590;7.666;2023-01-13T04:32:23;11.30;97.10
31038;DHT22;17702;47.590;7.666;2023-01-13T04:34:48;11.30;97.40
31038;DHT22;17702;47.590;7.666;2023-01-13T04:37:14;11.40;97.50
31038;DHT22;17702;47.590;7.666;2023-01-13T04:39:39;11.30;97.10
31038;DHT22;17702;47.590;7.666;2023-01-13T04:42:05;11.30;97.80
31038;DHT22;17702;47.590;7.666;2023-01-13T04:44:30;11.30;96.90
31038;DHT22;17702;47.590;7.666;2023-01-13T04:46:59;11.30;96.90
31038;DHT22;17702;47.590;7.666;2023-01-13T04:49:25;11.30;97.20
31038;DHT22;17702;47.590;7.666;2023-01-13T04:51:50;11.30;97.10
31038;DHT22;17702;47.590;7.666;2023-01-13T04:54:16;11.30;96.50
31038;DHT22;17702;47.590;7.666;2023-01-13T04:56:41;11.30;97.00
31038;DHT22;17702;47.590;7.666;2023-01-13T04:59:08;11.30;96.20
31038;DHT22;17702;47.590;7.666;2023-01-13T05:01:33;11.30;96.30
31038;DHT22;17702;47.590;7.666;2023-01-13T05:03:59;11.30;96.50
31038;DHT22;17702;47.590;7.666;2023-01-13T05:06:24;11.30;96.50
31038;DHT22;17702;47.590;7.666;2023-01-13T05:08:50;11.40;97.00
31038;DHT22;17702;47.590;7.666;2023-01-13T05:11:15;11.40;96.70
31038;DHT22;17702;47.590;7.666;2023-01-13T05:14:00;11.40;96.00
31038;DHT22;17702;47.590;7.666;2023-01-13T05:16:45;11.40;95.70
31038;DHT22;17702;47.590;7.666;2023-01-13T05:19:28;11.40;96.00
31038;DHT22;17702;47.590;7.666;2023-01-13T05:21:54;11.20;96.70
31038;DHT22;17702;47.590;7.666;2023-01-13T05:24:38;11.30;96.60
31038;DHT22;17702;47.590;7.666;2023-01-13T05:27:22;11.30;96.90
31038;DHT22;17702;47.590;7.666;2023-01-13T05:29:47;11.30;96.40
31038;DHT22;17702;47.590;7.666;2023-01-13T05:32:13;11.30;96.70
31038;DHT22;17702;47.590;7.666;2023-01-13T05:34:38;11.30;96.60
31038;DHT22;17702;47.590;7.666;2023-01-13T05:37:04;11.30;96.70
31038;DHT22;17702;47.590;7.666;2023-01-13T05:39:32;11.30;96.60
31038;DHT22;17702;47.590;7.666;2023-01-13T05:42:17;11.30;96.30
31038;DHT22;17702;47.590;7.666;2023-01-13T05:45:01;11.30;96.90
31038;DHT22;17702;47.590;7.666;2023-01-13T05:47:27;11.30;96.30
31038;DHT22;17702;47.590;7.666;2023-01-13T05:49:52;11.30;96.10
31038;DHT22;17702;47.590;7.666;2023-01-13T05:52:18;11.30;96.50
31038;DHT22;17702;47.590;7.666;2023-01-13T05:54:43;11.30;96.60
31038;DHT22;17702;47.590;7.666;2023-01-13T05:57:08;11.30;96.70
31038;DHT22;17702;47.590;7.666;2023-01-13T05:59:34;11.30;96.40
31038;DHT22;17702;47.590;7.666;2023-01-13T06:01:59;11.30;96.70
31038;DHT22;17702;47.590;7.666;2023-01-13T06:04:25;11.30;96.20
31038;DHT22;17702;47.590;7.666;2023-01-13T06:06:50;11.30;96.30
31038;DHT22;17702;47.590;7.666;2023-01-13T06:09:16;11.30;96.00
31038;DHT22;17702;47.590;7.666;2023-01-13T06:11:42;11.20;96.40
31038;DHT22;17702;47.590;7.666;2023-01-13T06:14:07;11.30;96.10
31038;DHT22;17702;47.590;7.666;2023-01-13T06:16:33;11.20;96.10
31038;DHT22;17702;47.590;7.666;2023-01-13T06:18:58;11.20;96.50
31038;DHT22;17702;47.590;7.666;2023-01-13T06:21:23;11.30;96.40
31038;DHT22;17702;47.590;7.666;2023-01-13T06:23:49;11.30;96.60
31038;DHT22;17702;47.590;7.666;2023-01-13T06:26:15;11.30;96.70
31038;DHT22;17702;47.590;7.666;2023-01-13T06:28:43;11.20;96.70
31038;DHT22;17702;47.590;7.666;2023-01-13T06:31:08;11.20;96.90
31038;DHT22;17702;47.590;7.666;2023-01-13T06:33:42;11.20;97.00
31038;DHT22;17702;47.590;7.666;2023-01-13T06:36:14;11.20;97.10
31038;DHT22;17702;47.590;7.666;2023-01-13T06:38:41;11.20;96.70
31038;DHT22;17702;47.590;7.666;2023-01-13T06:41:08;11.20;96.90
31038;DHT22;17702;47.590;7.666;2023-01-13T06:43:34;11.20;96.50
31038;DHT22;17702;47.590;7.666;2023-01-13T06:46:00;11.30;96.20
31038;DHT22;17702;47.590;7.666;2023-01-13T06:48:26;11.30;96.10
31038;DHT22;17702;47.590;7.666;2023-01-13T06:50:53;11.20;96.30
31038;DHT22;17702;47.590;7.666;2023-01-13T06:53:19;11.20;96.60
31038;DHT22;17702;47.590;7.666;2023-01-13T06:55:44;11.30;96.50
31038;DHT22;17702;47.590;7.666;2023-01-13T06:58:10;11.30;96.50
31038;DHT22;17702;47.590;7.666;2023-01-13T07:00:35;11.20;96.40
31038;DHT22;17702;47.590;7.666;2023-01-13T07:03:05;11.20;96.20
31038;DHT22;17702;47.590;7.666;2023-01-13T07:05:30;11.20;96.20
31038;DHT22;17702;47.590;7.666;2023-01-13T07:07:56;11.20;96.00
31038;DHT22;17702;47.590;7.666;2023-01-13T07:10:22;11.30;95.70
31038;DHT22;17702;47.590;7.666;2023-01-13T07:12:47;11.20;95.80
31038;DHT22;17702;47.590;7.666;2023-01-13T07:15:32;11.30;95.30
31038;DHT22;17702;47.590;7.666;2023-01-13T07:17:58;11.30;95.30
31038;DHT22;17702;47.590;7.666;2023-01-13T07:20:24;11.30;95.60
31038;DHT22;17702;47.590;7.666;2023-01-13T07:22:53;11.20;95.50
31038;DHT22;17702;47.590;7.666;2023-01-13T07:25:19;11.20;95.40
31038;DHT22;17702;47.590;7.666;2023-01-13T07:27:44;11.20;95.90
31038;DHT22;17702;47.590;7.666;2023-01-13T07:30:10;11.20;95.90
31038;DHT22;17702;47.590;7.666;2023-01-13T07:32:36;11.20;96.00
31038;DHT22;17702;47.590;7.666;2023-01-13T07:35:01;11.20;95.90
31038;DHT22;17702;47.590;7.666;2023-01-13T07:37:30;11.20;96.00
31038;DHT22;17702;47.590;7.666;2023-01-13T07:39:56;11.20;96.30
31038;DHT22;17702;47.590;7.666;2023-01-13T07:42:21;11.20;96.10
31038;DHT22;17702;47.590;7.666;2023-01-13T07:45:06;11.20;96.10
31038;DHT22;17702;47.590;7.666;2023-01-13T07:47:31;11.20;96.30
31038;DHT22;17702;47.590;7.666;2023-01-13T07:49:57;11.20;96.10
31038;DHT22;17702;47.590;7.666;2023-01-13T07:52:23;11.10;96.40
31038;DHT22;17702;47.590;7.666;2023-01-13T07:54:48;11.10;96.20
31038;DHT22;17702;47.590;7.666;2023-01-13T07:57:14;11.10;96.70
31038;DHT22;17702;47.590;7.666;2023-01-13T07:59:39;11.10;96.40
31038;DHT22;17702;47.590;7.666;2023-01-13T08:02:05;11.10;96.50
31038;DHT22;17702;47.590;7.666;2023-01-13T08:04:30;11.10;96.50
31038;DHT22;17702;47.590;7.666;2023-01-13T08:06:56;11.20;96.20
31038;DHT22;17702;47.590;7.666;2023-01-13T08:09:21;11.10;96.80
31038;DHT22;17702;47.590;7.666;2023-01-13T08:11:47;11.20;96.60
31038;DHT22;17702;47.590;7.666;2023-01-13T08:14:32;11.20;96.50
31038;DHT22;17702;47.590;7.666;2023-01-13T08:16:58;11.20;96.20
31038;DHT22;17702;47.590;7.666;2023-01-13T08:19:23;11.20;96.20
31038;DHT22;17702;47.590;7.666;2023-01-13T08:21:49;11.20;96.40
31038;DHT22;17702;47.590;7.666;2023-01-13T08:24:14;11.20;97.40
31038;DHT22;17702;47.590;7.666;2023-01-13T08:26:40;11.20;98.40
31038;DHT22;17702;47.590;7.666;2023-01-13T08:29:05;11.10;98.90
31038;DHT22;17702;47.590;7.666;2023-01-13T08:31:31;11.10;98.60
31038;DHT22;17702;47.590;7.666;2023-01-13T08:33:56;11.00;99.10
31038;DHT22;17702;47.590;7.666;2023-01-13T08:36:21;11.00;99.40
31038;DHT22;17702;47.590;7.666;2023-01-13T08:38:49;11.00;99.00
31038;DHT22;17702;47.590;7.666;2023-01-13T08:41:15;11.00;99.20
31038;DHT22;17702;47.590;7.666;2023-01-13T08:44:01;11.00;99.30
31038;DHT22;17702;47.590;7.666;2023-01-13T08:46:26;11.60;99.70
31038;DHT22;17702;47.590;7.666;2023-01-13T08:48:51;11.70;98.70
31038;DHT22;17702;47.590;7.666;2023-01-13T08:51:17;11.60;98.90
31038;DHT22;17702;47.590;7.666;2023-01-13T08:53:42;11.50;98.70
31038;DHT22;17702;47.590;7.666;2023-01-13T08:56:08;11.50;99.40
31038;DHT22;17702;47.590;7.666;2023-01-13T08:58:37;11.40;99.70
31038;DHT22;17702;47.590;7.666;2023-01-13T09:01:04;11.40;99.70
31038;DHT22;17702;47.590;7.666;2023-01-13T09:03:29;11.30;99.90
31038;DHT22;17702;47.590;7.666;2023-01-13T09:05:55;11.30;99.90
31038;DHT22;17702;47.590;7.666;2023-01-13T09:08:20;11.20;99.90
31038;DHT22;17702;47.590;7.666;2023-01-13T09:10:46;11.10;99.90
31038;DHT22;17702;47.590;7.666;2023-01-13T09:13:12;11.10;99.90
31038;DHT22;17702;47.590;7.666;2023-01-13T09:15:38;11.00;99.90
31038;DHT22;17702;47.590;7.666;2023-01-13T09:18:04;11.00;99.90
31038;DHT22;17702;47.590;7.666;2023-01-13T09:20:29;11.00;99.90
31038;DHT22;17702;47.590;7.666;2023-01-13T09:22:55;11.00;99.90
31038;DHT22;17702;47.590;7.666;2023-01-13T09:25:20;11.10;99.90
31038;DHT22;17702;47.590;7.666;2023-01-13T09:27:46;11.10;99.90
31038;DHT22;17702;47.590;7.666;2023-01-13T09:30:11;11.00;99.90
31038;DHT22;17702;47.590;7.666;2023-01-13T09:32:37;11.10;99.90
31038;DHT22;17702;47.590;7.666;2023-01-13T09:35:03;11.10;99.90
31038;DHT22;17702;47.590;7.666;2023-01-13T09:37:30;11.00;99.90
31038;DHT22;17702;47.590;7.666;2023-01-13T09:39:58;11.10;99.90
31038;DHT22;17702;47.590;7.666;2023-01-13T09:42:30;11.10;99.90
31038;DHT22;17702;47.590;7.666;2023-01-13T09:45:22;11.10;99.90
31038;DHT22;17702;47.590;7.666;2023-01-13T09:50:31;11.20;99.90
31038;DHT22;17702;47.590;7.666;2023-01-13T09:52:59;11.20;99.90
31038;DHT22;17702;47.590;7.666;2023-01-13T09:55:34;11.20;99.90
31038;DHT22;17702;47.590;7.666;2023-01-13T09:58:01;11.20;99.90
31038;DHT22;17702;47.590;7.666;2023-01-13T10:00:33;11.20;99.90
31038;DHT22;17702;47.590;7.666;2023-01-13T10:05:33;11.10;99.90
31038;DHT22;17702;47.590;7.666;2023-01-13T10:08:14;11.10;99.90
31038;DHT22;17702;47.590;7.666;2023-01-13T10:10:45;11.10;99.90
31038;DHT22;17702;47.590;7.666;2023-01-13T10:15:42;11.10;99.90
31038;DHT22;17702;47.590;7.666;2023-01-13T10:18:11;11.10;99.90
31038;DHT22;17702;47.590;7.666;2023-01-13T10:20:41;11.10;99.90
31038;DHT22;17702;47.590;7.666;2023-01-13T10:28:24;11.20;99.90
31038;DHT22;17702;47.590;7.666;2023-01-13T10:30:50;11.20;99.90
31038;DHT22;17702;47.590;7.666;2023-01-13T10:36:00;11.30;99.90
31038;DHT22;17702;47.590;7.666;2023-01-13T10:41:02;11.40;99.90
31038;DHT22;17702;47.590;7.666;2023-01-13T10:43:28;11.30;99.90
31038;DHT22;17702;47.590;7.666;2023-01-13T10:45:58;11.50;99.90
31038;DHT22;17702;47.590;7.666;2023-01-13T10:48:43;11.70;99.90
31038;DHT22;17702;47.590;7.666;2023-01-13T10:51:23;11.90;99.90
31038;DHT22;17702;47.590;7.666;2023-01-13T10:56:21;12.50;99.90
31038;DHT22;17702;47.590;7.666;2023-01-13T10:58:46;12.60;98.30
31038;DHT22;17702;47.590;7.666;2023-01-13T11:01:19;12.60;98.00
31038;DHT22;17702;47.590;7.666;2023-01-13T11:03:45;12.50;98.20
31038;DHT22;17702;47.590;7.666;2023-01-13T11:06:19;12.50;98.30
31038;DHT22;17702;47.590;7.666;2023-01-13T11:08:46;12.50;98.10
31038;DHT22;17702;47.590;7.666;2023-01-13T11:13:58;12.50;97.90
31038;DHT22;17702;47.590;7.666;2023-01-13T11:16:45;12.40;97.20
31038;DHT22;17702;47.590;7.666;2023-01-13T11:19:14;12.30;96.70
31038;DHT22;17702;47.590;7.666;2023-01-13T11:32:18;12.00;96.20
31038;DHT22;17702;47.590;7.666;2023-01-13T11:34:46;12.00;96.30
31038;DHT22;17702;47.590;7.666;2023-01-13T11:37:17;12.00;95.70
31038;DHT22;17702;47.590;7.666;2023-01-13T11:39:56;12.00;94.80
31038;DHT22;17702;47.590;7.666;2023-01-13T11:42:24;11.80;95.70
31038;DHT22;17702;47.590;7.666;2023-01-13T11:45:14;11.90;95.30
31038;DHT22;17702;47.590;7.666;2023-01-13T11:47:36;11.80;93.80
31038;DHT22;17702;47.590;7.666;2023-01-13T11:50:02;11.90;94.40
31038;DHT22;17702;47.590;7.666;2023-01-13T11:52:31;11.80;94.30
31038;DHT22;17702;47.590;7.666;2023-01-13T11:55:08;11.80;94.60
31038;DHT22;17702;47.590;7.666;2023-01-13T12:05:39;11.90;93.80
31038;DHT22;17702;47.590;7.666;2023-01-13T12:08:16;11.90;93.80
31038;DHT22;17702;47.590;7.666;2023-01-13T12:13:24;11.90;93.80
31038;DHT22;17702;47.590;7.666;2023-01-13T12:15:55;11.90;94.00
31038;DHT22;17702;47.590;7.666;2023-01-13T12:21:04;12.00;93.40
31038;DHT22;17702;47.590;7.666;2023-01-13T12:23:37;12.00;93.50
31038;DHT22;17702;47.590;7.666;2023-01-13T12:26:05;12.00;93.70
31038;DHT22;17702;47.590;7.666;2023-01-13T12:28:38;11.90;93.20
31038;DHT22;17702;47.590;7.666;2023-01-13T12:31:05;11.90;92.50
31038;DHT22;17702;47.590;7.666;2023-01-13T12:41:46;11.90;92.80
31038;DHT22;17702;47.590;7.666;2023-01-13T12:44:32;11.90;93.50
31038;DHT22;17702;47.590;7.666;2023-01-13T12:46:58;11.90;94.10
31038;DHT22;17702;47.590;7.666;2023-01-13T12:49:28;11.90;93.50
31038;DHT22;17702;47.590;7.666;2023-01-13T12:56:56;11.90;92.30
31038;DHT22;17702;47.590;7.666;2023-01-13T13:01:48;11.90;93.50
31038;DHT22;17702;47.590;7.666;2023-01-13T13:05:00;12.00;93.00
31038;DHT22;17702;47.590;7.666;2023-01-13T13:07:13;12.00;92.60
31038;DHT22;17702;47.590;7.666;2023-01-13T13:09:44;12.10;92.30
31038;DHT22;17702;47.590;7.666;2023-01-13T13:28:39;12.70;90.60
31038;DHT22;17702;47.590;7.666;2023-01-13T13:45:00;12.50;90.30
31038;DHT22;17702;47.590;7.666;2023-01-13T13:47:45;12.50;90.50
31038;DHT22;17702;47.590;7.666;2023-01-13T13:50:14;12.50;90.40
31038;DHT22;17702;47.590;7.666;2023-01-13T13:52:42;12.60;90.60
31038;DHT22;17702;47.590;7.666;2023-01-13T13:57:38;12.50;89.10
31038;DHT22;17702;47.590;7.666;2023-01-13T14:00:07;12.50;90.60
31038;DHT22;17702;47.590;7.666;2023-01-13T14:02:47;12.30;89.00
31038;DHT22;17702;47.590;7.666;2023-01-13T14:05:24;12.30;89.10
31038;DHT22;17702;47.590;7.666;2023-01-13T14:08:24;12.10;89.40
31038;DHT22;17702;47.590;7.666;2023-01-13T14:10:43;11.90;90.10
31038;DHT22;17702;47.590;7.666;2023-01-13T14:15:44;11.40;94.50
31038;DHT22;17702;47.590;7.666;2023-01-13T14:18:14;11.10;96.20
31038;DHT22;17702;47.590;7.666;2023-01-13T14:20:40;10.90;96.70
31038;DHT22;17702;47.590;7.666;2023-01-13T14:23:06;10.80;97.30
31038;DHT22;17702;47.590;7.666;2023-01-13T14:25:44;10.70;97.70
31038;DHT22;17702;47.590;7.666;2023-01-13T14:28:24;10.60;99.00
31038;DHT22;17702;47.590;7.666;2023-01-13T14:30:50;10.40;99.60
31038;DHT22;17702;47.590;7.666;2023-01-13T14:33:17;10.40;99.30
31038;DHT22;17702;47.590;7.666;2023-01-13T14:38:28;10.20;99.90
31038;DHT22;17702;47.590;7.666;2023-01-13T14:40:53;10.10;99.90
31038;DHT22;17702;47.590;7.666;2023-01-13T14:43:19;10.00;99.90
31038;DHT22;17702;47.590;7.666;2023-01-13T14:45:58;9.90;99.90
31038;DHT22;17702;47.590;7.666;2023-01-13T14:48:28;9.80;99.90
31038;DHT22;17702;47.590;7.666;2023-01-13T14:50:58;9.80;99.90
31038;DHT22;17702;47.590;7.666;2023-01-13T14:53:42;9.70;99.90
31038;DHT22;17702;47.590;7.666;2023-01-13T14:58:55;9.60;99.90
31038;DHT22;17702;47.590;7.666;2023-01-13T15:01:25;9.60;99.90
31038;DHT22;17702;47.590;7.666;2023-01-13T15:03:50;9.50;99.90
31038;DHT22;17702;47.590;7.666;2023-01-13T15:06:23;9.50;99.90
31038;DHT22;17702;47.590;7.666;2023-01-13T15:08:49;9.50;99.90
31038;DHT22;17702;47.590;7.666;2023-01-13T15:11:22;9.50;99.90
31038;DHT22;17702;47.590;7.666;2023-01-13T15:13:51;9.50;99.90
31038;DHT22;17702;47.590;7.666;2023-01-13T15:16:20;9.50;99.90
31038;DHT22;17702;47.590;7.666;2023-01-13T15:18:46;9.50;99.90
31038;DHT22;17702;47.590;7.666;2023-01-13T15:21:11;9.50;99.90
31038;DHT22;17702;47.590;7.666;2023-01-13T15:23:37;9.40;99.90
31038;DHT22;17702;47.590;7.666;2023-01-13T15:26:16;9.50;99.90
31038;DHT22;17702;47.590;7.666;2023-01-13T15:28:43;9.50;99.90
31038;DHT22;17702;47.590;7.666;2023-01-13T15:31:08;9.50;99.90
31038;DHT22;17702;47.590;7.666;2023-01-13T15:33:34;9.50;99.90
31038;DHT22;17702;47.590;7.666;2023-01-13T15:35:59;9.50;99.90
31038;DHT22;17702;47.590;7.666;2023-01-13T15:38:26;9.50;99.90
31038;DHT22;17702;47.590;7.666;2023-01-13T15:40:51;9.40;99.90
31038;DHT22;17702;47.590;7.666;2023-01-13T15:43:18;9.40;99.90
31038;DHT22;17702;47.590;7.666;2023-01-13T15:46:04;9.40;99.90
31038;DHT22;17702;47.590;7.666;2023-01-13T15:48:49;9.40;99.90
31038;DHT22;17702;47.590;7.666;2023-01-13T15:51:15;9.40;99.90
31038;DHT22;17702;47.590;7.666;2023-01-13T15:53:40;9.40;99.90
31038;DHT22;17702;47.590;7.666;2023-01-13T15:56:19;9.30;99.90
31038;DHT22;17702;47.590;7.666;2023-01-13T15:58:45;9.30;99.90
31038;DHT22;17702;47.590;7.666;2023-01-13T16:01:11;9.30;99.90
31038;DHT22;17702;47.590;7.666;2023-01-13T16:03:37;9.30;99.90
31038;DHT22;17702;47.590;7.666;2023-01-13T16:06:04;9.20;99.90
31038;DHT22;17702;47.590;7.666;2023-01-13T16:08:30;9.20;99.90
31038;DHT22;17702;47.590;7.666;2023-01-13T16:10:58;9.20;99.90
31038;DHT22;17702;47.590;7.666;2023-01-13T16:13:24;9.20;99.90
31038;DHT22;17702;47.590;7.666;2023-01-13T16:15:49;9.20;99.90
31038;DHT22;17702;47.590;7.666;2023-01-13T16:18:16;9.20;99.90
31038;DHT22;17702;47.590;7.666;2023-01-13T16:20:42;9.10;99.90
31038;DHT22;17702;47.590;7.666;2023-01-13T16:23:08;9.10;99.90
31038;DHT22;17702;47.590;7.666;2023-01-13T16:25:33;9.00;99.90
31038;DHT22;17702;47.590;7.666;2023-01-13T16:27:59;9.10;99.90
31038;DHT22;17702;47.590;7.666;2023-01-13T16:30:28;9.10;99.90
31038;DHT22;17702;47.590;7.666;2023-01-13T16:32:54;9.20;99.90
31038;DHT22;17702;47.590;7.666;2023-01-13T16:35:21;9.30;99.90
31038;DHT22;17702;47.590;7.666;2023-01-13T16:37:46;9.50;99.90
31038;DHT22;17702;47.590;7.666;2023-01-13T16:42:47;9.50;99.90
31038;DHT22;17702;47.590;7.666;2023-01-13T16:45:13;9.60;99.90
31038;DHT22;17702;47.590;7.666;2023-01-13T16:47:38;9.60;99.90
31038;DHT22;17702;47.590;7.666;2023-01-13T16:50:04;9.60;99.90
31038;DHT22;17702;47.590;7.666;2023-01-13T16:52:32;9.60;99.90
31038;DHT22;17702;47.590;7.666;2023-01-13T16:54:57;9.60;99.90
31038;DHT22;17702;47.590;7.666;2023-01-13T16:57:25;9.60;99.90
31038;DHT22;17702;47.590;7.666;2023-01-13T16:59:50;9.50;99.90
31038;DHT22;17702;47.590;7.666;2023-01-13T17:02:16;9.50;99.90
31038;DHT22;17702;47.590;7.666;2023-01-13T17:04:42;9.40;99.90
31038;DHT22;17702;47.590;7.666;2023-01-13T17:07:08;9.40;99.90
31038;DHT22;17702;47.590;7.666;2023-01-13T17:09:39;9.40;99.90
31038;DHT22;17702;47.590;7.666;2023-01-13T17:12:04;9.50;99.90
31038;DHT22;17702;47.590;7.666;2023-01-13T17:14:30;9.40;99.90
31038;DHT22;17702;47.590;7.666;2023-01-13T17:16:55;9.40;99.90
31038;DHT22;17702;47.590;7.666;2023-01-13T17:19:21;9.40;99.90
31038;DHT22;17702;47.590;7.666;2023-01-13T17:21:47;9.40;99.90
31038;DHT22;17702;47.590;7.666;2023-01-13T17:24:15;9.40;99.90
31038;DHT22;17702;47.590;7.666;2023-01-13T17:26:49;9.40;99.90
31038;DHT22;17702;47.590;7.666;2023-01-13T17:29:16;9.40;99.90
31038;DHT22;17702;47.590;7.666;2023-01-13T17:31:42;9.40;99.90
31038;DHT22;17702;47.590;7.666;2023-01-13T17:34:08;9.40;99.90
31038;DHT22;17702;47.590;7.666;2023-01-13T17:36:34;9.40;99.90
31038;DHT22;17702;47.590;7.666;2023-01-13T17:38:59;9.40;99.90
31038;DHT22;17702;47.590;7.666;2023-01-13T17:41:25;9.40;99.90
31038;DHT22;17702;47.590;7.666;2023-01-13T17:43:51;9.40;99.90
31038;DHT22;17702;47.590;7.666;2023-01-13T17:46:17;9.40;99.90
31038;DHT22;17702;47.590;7.666;2023-01-13T17:48:46;9.30;99.90
31038;DHT22;17702;47.590;7.666;2023-01-13T17:51:12;9.50;99.90
31038;DHT22;17702;47.590;7.666;2023-01-13T17:53:38;9.40;99.90
31038;DHT22;17702;47.590;7.666;2023-01-13T17:56:10;9.40;99.90
31038;DHT22;17702;47.590;7.666;2023-01-13T17:58:36;9.40;99.90
31038;DHT22;17702;47.590;7.666;2023-01-13T18:01:09;9.50;99.90
31038;DHT22;17702;47.590;7.666;2023-01-13T18:03:35;9.60;99.90
31038;DHT22;17702;47.590;7.666;2023-01-13T18:06:02;9.60;99.90
31038;DHT22;17702;47.590;7.666;2023-01-13T18:08:27;9.60;99.90
31038;DHT22;17702;47.590;7.666;2023-01-13T18:10:53;9.50;99.90
31038;DHT22;17702;47.590;7.666;2023-01-13T18:13:21;9.60;99.90